sensor_id;sensor_type;location;lat;lon;timestamp;temperature;humidity
71436;SHT31;59251;51.326;12.370;2023-03-01T00:01:14;-0.51;79.90
71436;SHT31;59251;51.326;12.370;2023-03-01T00:03:41;-0.53;79.94
71436;SHT31;59251;51.326;12.370;2023-03-01T00:06:07;-0.54;80.08
71436;SHT31;59251;51.326;12.370;2023-03-01T00:08:33;-0.67;80.41
71436;SHT31;59251;51.326;12.370;2023-03-01T00:11:07;-0.74;80.81
71436;SHT31;59251;51.326;12.370;2023-03-01T00:13:34;-0.77;80.95
71436;SHT31;59251;51.326;12.370;2023-03-01T00:16:04;-0.75;80.75
71436;SHT31;59251;51.326;12.370;2023-03-01T00:18:29;-0.69;80.69
71436;SHT31;59251;51.326;12.370;2023-03-01T00:20:55;-0.62;80.28
71436;SHT31;59251;51.326;12.370;2023-03-01T00:23:22;-0.57;79.95
71436;SHT31;59251;51.326;12.370;2023-03-01T00:25:47;-0.72;80.38
71436;SHT31;59251;51.326;12.370;2023-03-01T00:28:13;-0.77;80.79
71436;SHT31;59251;51.326;12.370;2023-03-01T00:30:38;-0.75;80.61
71436;SHT31;59251;51.326;12.370;2023-03-01T00:33:03;-0.72;80.68
71436;SHT31;59251;51.326;12.370;2023-03-01T00:35:29;-0.75;80.86
71436;SHT31;59251;51.326;12.370;2023-03-01T00:37:58;-0.85;81.05
71436;SHT31;59251;51.326;12.370;2023-03-01T00:40:25;-0.92;81.27
71436;SHT31;59251;51.326;12.370;2023-03-01T00:42:50;-0.91;81.17
71436;SHT31;59251;51.326;12.370;2023-03-01T00:45:16;-0.88;81.18
71436;SHT31;59251;51.326;12.370;2023-03-01T00:47:42;-0.88;81.34
71436;SHT31;59251;51.326;12.370;2023-03-01T00:50:08;-0.89;81.19
71436;SHT31;59251;51.326;12.370;2023-03-01T00:52:33;-0.82;80.99
71436;SHT31;59251;51.326;12.370;2023-03-01T00:54:59;-0.92;81.26
71436;SHT31;59251;51.326;12.370;2023-03-01T00:57:24;-0.81;81.04
71436;SHT31;59251;51.326;12.370;2023-03-01T00:59:49;-0.86;81.26
71436;SHT31;59251;51.326;12.370;2023-03-01T01:02:18;-0.89;81.28
71436;SHT31;59251;51.326;12.370;2023-03-01T01:04:44;-1.03;81.52
71436;SHT31;59251;51.326;12.370;2023-03-01T01:07:09;-1.09;82.02
71436;SHT31;59251;51.326;12.370;2023-03-01T01:09:35;-1.02;81.75
71436;SHT31;59251;51.326;12.370;2023-03-01T01:12:00;-1.06;81.56
71436;SHT31;59251;51.326;12.370;2023-03-01T01:14:26;-1.03;81.54
71436;SHT31;59251;51.326;12.370;2023-03-01T01:16:52;-0.93;81.17
71436;SHT31;59251;51.326;12.370;2023-03-01T01:19:17;-0.86;80.96
71436;SHT31;59251;51.326;12.370;2023-03-01T01:21:43;-1.07;81.50
71436;SHT31;59251;51.326;12.370;2023-03-01T01:24:10;-1.09;81.66
71436;SHT31;59251;51.326;12.370;2023-03-01T01:26:36;-1.07;81.77
71436;SHT31;59251;51.326;12.370;2023-03-01T01:29:03;-1.25;82.22
71436;SHT31;59251;51.326;12.370;2023-03-01T01:31:29;-1.27;82.17
71436;SHT31;59251;51.326;12.370;2023-03-01T01:33:55;-1.03;81.48
71436;SHT31;59251;51.326;12.370;2023-03-01T01:36:21;-1.16;82.17
71436;SHT31;59251;51.326;12.370;2023-03-01T01:38:47;-1.20;82.29
71436;SHT31;59251;51.326;12.370;2023-03-01T01:41:14;-1.21;82.54
71436;SHT31;59251;51.326;12.370;2023-03-01T01:43:44;-1.29;82.90
71436;SHT31;59251;51.326;12.370;2023-03-01T01:46:25;-1.21;82.73
71436;SHT31;59251;51.326;12.370;2023-03-01T01:48:56;-1.13;82.08
71436;SHT31;59251;51.326;12.370;2023-03-01T01:51:27;-1.21;82.29
71436;SHT31;59251;51.326;12.370;2023-03-01T01:53:56;-1.30;82.51
71436;SHT31;59251;51.326;12.370;2023-03-01T01:56:25;-1.23;82.51
71436;SHT31;59251;51.326;12.370;2023-03-01T01:58:51;-1.09;82.20
71436;SHT31;59251;51.326;12.370;2023-03-01T02:01:17;-1.21;82.57
71436;SHT31;59251;51.326;12.370;2023-03-01T02:03:43;-1.17;82.47
71436;SHT31;59251;51.326;12.370;2023-03-01T02:08:38;-1.29;82.77
71436;SHT31;59251;51.326;12.370;2023-03-01T02:11:04;-1.37;82.91
71436;SHT31;59251;51.326;12.370;2023-03-01T02:13:31;-1.53;83.45
71436;SHT31;59251;51.326;12.370;2023-03-01T02:15:57;-1.36;82.94
71436;SHT31;59251;51.326;12.370;2023-03-01T02:18:23;-1.60;83.54
71436;SHT31;59251;51.326;12.370;2023-03-01T02:23:30;-1.51;83.68
71436;SHT31;59251;51.326;12.370;2023-03-01T02:26:01;-1.61;83.88
71436;SHT31;59251;51.326;12.370;2023-03-01T02:28:36;-1.78;84.46
71436;SHT31;59251;51.326;12.370;2023-03-01T02:31:04;-1.51;83.55
71436;SHT31;59251;51.326;12.370;2023-03-01T02:33:49;-1.67;84.13
71436;SHT31;59251;51.326;12.370;2023-03-01T02:36:20;-1.68;84.53
71436;SHT31;59251;51.326;12.370;2023-03-01T02:38:48;-1.65;84.40
71436;SHT31;59251;51.326;12.370;2023-03-01T02:41:16;-1.39;83.02
71436;SHT31;59251;51.326;12.370;2023-03-01T02:43:42;-1.21;82.34
71436;SHT31;59251;51.326;12.370;2023-03-01T02:46:14;-1.26;82.40
71436;SHT31;59251;51.326;12.370;2023-03-01T02:48:48;-1.36;82.67
71436;SHT31;59251;51.326;12.370;2023-03-01T02:54:15;-1.39;82.83
71436;SHT31;59251;51.326;12.370;2023-03-01T02:56:43;-1.50;83.26
71436;SHT31;59251;51.326;12.370;2023-03-01T02:59:09;-1.51;83.20
71436;SHT31;59251;51.326;12.370;2023-03-01T03:01:35;-1.53;83.19
71436;SHT31;59251;51.326;12.370;2023-03-01T03:04:05;-1.57;83.39
71436;SHT31;59251;51.326;12.370;2023-03-01T03:06:31;-1.48;83.54
71436;SHT31;59251;51.326;12.370;2023-03-01T03:08:57;-1.50;83.23
71436;SHT31;59251;51.326;12.370;2023-03-01T03:11:22;-1.47;83.15
71436;SHT31;59251;51.326;12.370;2023-03-01T03:13:48;-1.46;83.01
71436;SHT31;59251;51.326;12.370;2023-03-01T03:16:14;-1.46;83.11
71436;SHT31;59251;51.326;12.370;2023-03-01T03:18:40;-1.48;83.31
71436;SHT31;59251;51.326;12.370;2023-03-01T03:21:09;-1.50;83.37
71436;SHT31;59251;51.326;12.370;2023-03-01T03:23:35;-1.54;83.65
71436;SHT31;59251;51.326;12.370;2023-03-01T03:26:01;-1.74;84.02
71436;SHT31;59251;51.326;12.370;2023-03-01T03:28:29;-1.74;84.63
71436;SHT31;59251;51.326;12.370;2023-03-01T03:30:56;-1.79;84.73
71436;SHT31;59251;51.326;12.370;2023-03-01T03:33:21;-1.70;84.10
71436;SHT31;59251;51.326;12.370;2023-03-01T03:35:48;-1.89;84.70
71436;SHT31;59251;51.326;12.370;2023-03-01T03:38:16;-1.91;85.26
71436;SHT31;59251;51.326;12.370;2023-03-01T03:40:47;-1.89;85.28
71436;SHT31;59251;51.326;12.370;2023-03-01T03:43:15;-2.01;85.57
71436;SHT31;59251;51.326;12.370;2023-03-01T03:45:44;-1.98;85.54
71436;SHT31;59251;51.326;12.370;2023-03-01T03:48:09;-1.77;84.85
71436;SHT31;59251;51.326;12.370;2023-03-01T03:50:36;-1.77;84.86
71436;SHT31;59251;51.326;12.370;2023-03-01T03:53:03;-1.60;84.33
71436;SHT31;59251;51.326;12.370;2023-03-01T03:55:29;-1.61;84.24
71436;SHT31;59251;51.326;12.370;2023-03-01T03:57:58;-1.61;84.28
71436;SHT31;59251;51.326;12.370;2023-03-01T04:00:27;-1.58;84.27
71436;SHT31;59251;51.326;12.370;2023-03-01T04:02:52;-1.70;84.62
71436;SHT31;59251;51.326;12.370;2023-03-01T04:05:22;-1.65;84.41
71436;SHT31;59251;51.326;12.370;2023-03-01T04:07:47;-1.91;85.12
71436;SHT31;59251;51.326;12.370;2023-03-01T04:10:17;-1.88;85.25
71436;SHT31;59251;51.326;12.370;2023-03-01T04:12:43;-2.01;85.66
71436;SHT31;59251;51.326;12.370;2023-03-01T04:15:09;-2.02;85.98
71436;SHT31;59251;51.326;12.370;2023-03-01T04:17:45;-2.05;86.15
71436;SHT31;59251;51.326;12.370;2023-03-01T04:20:16;-2.12;86.46
71436;SHT31;59251;51.326;12.370;2023-03-01T04:22:57;-2.13;86.37
71436;SHT31;59251;51.326;12.370;2023-03-01T04:25:23;-2.19;86.63
71436;SHT31;59251;51.326;12.370;2023-03-01T04:27:49;-2.19;86.67
71436;SHT31;59251;51.326;12.370;2023-03-01T04:30:14;-2.19;86.59
71436;SHT31;59251;51.326;12.370;2023-03-01T04:32:40;-2.23;86.56
71436;SHT31;59251;51.326;12.370;2023-03-01T04:35:05;-2.18;86.40
71436;SHT31;59251;51.326;12.370;2023-03-01T04:37:31;-2.15;86.20
71436;SHT31;59251;51.326;12.370;2023-03-01T04:39:56;-2.13;86.19
71436;SHT31;59251;51.326;12.370;2023-03-01T04:42:22;-2.19;86.42
71436;SHT31;59251;51.326;12.370;2023-03-01T04:44:48;-2.19;86.40
71436;SHT31;59251;51.326;12.370;2023-03-01T04:47:16;-2.16;86.58
71436;SHT31;59251;51.326;12.370;2023-03-01T04:49:41;-2.22;86.74
71436;SHT31;59251;51.326;12.370;2023-03-01T04:52:07;-2.28;86.88
71436;SHT31;59251;51.326;12.370;2023-03-01T04:54:33;-2.40;87.24
71436;SHT31;59251;51.326;12.370;2023-03-01T04:56:59;-2.32;87.12
71436;SHT31;59251;51.326;12.370;2023-03-01T04:59:25;-2.34;87.22
71436;SHT31;59251;51.326;12.370;2023-03-01T05:01:51;-2.39;87.37
71436;SHT31;59251;51.326;12.370;2023-03-01T05:04:17;-2.34;87.19
71436;SHT31;59251;51.326;12.370;2023-03-01T05:06:43;-2.36;87.23
71436;SHT31;59251;51.326;12.370;2023-03-01T05:09:08;-2.33;87.18
71436;SHT31;59251;51.326;12.370;2023-03-01T05:11:34;-2.32;87.08
71436;SHT31;59251;51.326;12.370;2023-03-01T05:14:05;-2.34;87.20
71436;SHT31;59251;51.326;12.370;2023-03-01T05:16:31;-2.43;87.50
71436;SHT31;59251;51.326;12.370;2023-03-01T05:18:58;-2.47;87.57
71436;SHT31;59251;51.326;12.370;2023-03-01T05:21:23;-2.49;87.77
71436;SHT31;59251;51.326;12.370;2023-03-01T05:23:49;-2.53;87.95
71436;SHT31;59251;51.326;12.370;2023-03-01T05:26:17;-2.49;87.90
71436;SHT31;59251;51.326;12.370;2023-03-01T05:28:43;-2.51;87.87
71436;SHT31;59251;51.326;12.370;2023-03-01T05:31:08;-2.54;88.00
71436;SHT31;59251;51.326;12.370;2023-03-01T05:33:36;-2.64;88.25
71436;SHT31;59251;51.326;12.370;2023-03-01T05:36:02;-2.71;88.63
71436;SHT31;59251;51.326;12.370;2023-03-01T05:38:28;-2.64;88.66
71436;SHT31;59251;51.326;12.370;2023-03-01T05:40:53;-2.68;88.75
71436;SHT31;59251;51.326;12.370;2023-03-01T05:43:18;-2.58;88.40
71436;SHT31;59251;51.326;12.370;2023-03-01T05:45:44;-2.56;88.32
71436;SHT31;59251;51.326;12.370;2023-03-01T05:48:11;-2.51;87.87
71436;SHT31;59251;51.326;12.370;2023-03-01T05:50:42;-2.49;87.89
71436;SHT31;59251;51.326;12.370;2023-03-01T05:53:26;-2.56;87.96
71436;SHT31;59251;51.326;12.370;2023-03-01T05:55:51;-2.60;88.43
71436;SHT31;59251;51.326;12.370;2023-03-01T05:58:18;-2.60;88.19
71436;SHT31;59251;51.326;12.370;2023-03-01T06:00:47;-2.67;88.81
71436;SHT31;59251;51.326;12.370;2023-03-01T06:03:15;-2.58;88.68
71436;SHT31;59251;51.326;12.370;2023-03-01T06:05:41;-2.54;88.83
71436;SHT31;59251;51.326;12.370;2023-03-01T06:08:06;-2.40;87.96
71436;SHT31;59251;51.326;12.370;2023-03-01T06:10:32;-2.29;87.43
71436;SHT31;59251;51.326;12.370;2023-03-01T06:12:58;-2.29;87.50
71436;SHT31;59251;51.326;12.370;2023-03-01T06:15:24;-2.21;87.58
71436;SHT31;59251;51.326;12.370;2023-03-01T06:17:50;-2.21;87.38
71436;SHT31;59251;51.326;12.370;2023-03-01T06:20:20;-2.25;87.19
71436;SHT31;59251;51.326;12.370;2023-03-01T06:22:47;-2.23;87.31
71436;SHT31;59251;51.326;12.370;2023-03-01T06:25:16;-2.23;87.18
71436;SHT31;59251;51.326;12.370;2023-03-01T06:27:42;-2.34;87.56
71436;SHT31;59251;51.326;12.370;2023-03-01T06:30:09;-2.39;87.87
71436;SHT31;59251;51.326;12.370;2023-03-01T06:32:36;-2.23;87.44
71436;SHT31;59251;51.326;12.370;2023-03-01T06:35:02;-2.16;87.08
71436;SHT31;59251;51.326;12.370;2023-03-01T06:37:28;-2.13;87.14
71436;SHT31;59251;51.326;12.370;2023-03-01T06:39:53;-2.10;87.11
71436;SHT31;59251;51.326;12.370;2023-03-01T06:42:18;-0.58;90.16
71436;SHT31;59251;51.326;12.370;2023-03-01T06:44:44;-0.20;85.49
71436;SHT31;59251;51.326;12.370;2023-03-01T06:47:09;-0.33;86.07
71436;SHT31;59251;51.326;12.370;2023-03-01T06:49:35;-0.93;83.07
71436;SHT31;59251;51.326;12.370;2023-03-01T06:52:00;-1.29;84.15
71436;SHT31;59251;51.326;12.370;2023-03-01T06:54:26;-1.63;85.04
71436;SHT31;59251;51.326;12.370;2023-03-01T06:56:51;-1.65;85.31
71436;SHT31;59251;51.326;12.370;2023-03-01T06:59:17;-1.63;85.40
71436;SHT31;59251;51.326;12.370;2023-03-01T07:01:42;-1.64;85.49
71436;SHT31;59251;51.326;12.370;2023-03-01T07:04:09;-1.61;85.50
71436;SHT31;59251;51.326;12.370;2023-03-01T07:06:34;-1.51;85.11
71436;SHT31;59251;51.326;12.370;2023-03-01T07:09:00;-1.50;84.78
71436;SHT31;59251;51.326;12.370;2023-03-01T07:11:25;-1.47;84.82
71436;SHT31;59251;51.326;12.370;2023-03-01T07:13:50;-1.44;84.91
71436;SHT31;59251;51.326;12.370;2023-03-01T07:16:16;-0.77;83.18
71436;SHT31;59251;51.326;12.370;2023-03-01T07:18:42;0.09;80.69
71436;SHT31;59251;51.326;12.370;2023-03-01T07:21:09;-0.85;82.00
71436;SHT31;59251;51.326;12.370;2023-03-01T07:23:36;-0.96;82.77
71436;SHT31;59251;51.326;12.370;2023-03-01T07:26:01;-1.10;83.16
71436;SHT31;59251;51.326;12.370;2023-03-01T07:28:27;-1.10;83.30
71436;SHT31;59251;51.326;12.370;2023-03-01T07:30:53;-1.03;83.34
71436;SHT31;59251;51.326;12.370;2023-03-01T07:33:18;-0.92;83.09
71436;SHT31;59251;51.326;12.370;2023-03-01T07:35:44;-0.64;81.91
71436;SHT31;59251;51.326;12.370;2023-03-01T07:38:09;-0.56;81.72
71436;SHT31;59251;51.326;12.370;2023-03-01T07:40:35;-0.45;81.44
71436;SHT31;59251;51.326;12.370;2023-03-01T07:43:01;-0.40;81.67
71436;SHT31;59251;51.326;12.370;2023-03-01T07:45:27;-0.33;81.46
71436;SHT31;59251;51.326;12.370;2023-03-01T07:47:53;-0.27;81.05
71436;SHT31;59251;51.326;12.370;2023-03-01T07:50:19;-0.34;81.05
71436;SHT31;59251;51.326;12.370;2023-03-01T07:52:49;-0.31;81.21
71436;SHT31;59251;51.326;12.370;2023-03-01T07:55:15;-0.21;81.08
71436;SHT31;59251;51.326;12.370;2023-03-01T07:57:41;0.01;80.72
71436;SHT31;59251;51.326;12.370;2023-03-01T08:00:09;0.25;79.77
71436;SHT31;59251;51.326;12.370;2023-03-01T08:02:34;-0.03;80.56
71436;SHT31;59251;51.326;12.370;2023-03-01T08:05:00;0.32;80.16
71436;SHT31;59251;51.326;12.370;2023-03-01T08:07:25;0.44;79.25
71436;SHT31;59251;51.326;12.370;2023-03-01T08:09:51;0.49;79.23
71436;SHT31;59251;51.326;12.370;2023-03-01T08:12:16;0.37;79.22
71436;SHT31;59251;51.326;12.370;2023-03-01T08:14:42;0.42;79.14
71436;SHT31;59251;51.326;12.370;2023-03-01T08:17:08;0.46;78.80
71436;SHT31;59251;51.326;12.370;2023-03-01T08:19:33;0.62;78.57
71436;SHT31;59251;51.326;12.370;2023-03-01T08:22:01;0.72;78.32
71436;SHT31;59251;51.326;12.370;2023-03-01T08:24:26;0.77;78.18
71436;SHT31;59251;51.326;12.370;2023-03-01T08:26:52;0.93;78.02
71436;SHT31;59251;51.326;12.370;2023-03-01T08:29:18;0.70;78.35
71436;SHT31;59251;51.326;12.370;2023-03-01T08:31:43;0.79;78.67
71436;SHT31;59251;51.326;12.370;2023-03-01T08:34:12;0.91;78.27
71436;SHT31;59251;51.326;12.370;2023-03-01T08:36:40;0.86;78.41
71436;SHT31;59251;51.326;12.370;2023-03-01T08:39:08;0.87;78.05
71436;SHT31;59251;51.326;12.370;2023-03-01T08:41:34;1.14;77.95
71436;SHT31;59251;51.326;12.370;2023-03-01T08:43:59;1.14;77.79
71436;SHT31;59251;51.326;12.370;2023-03-01T08:46:28;1.23;77.87
71436;SHT31;59251;51.326;12.370;2023-03-01T08:48:54;1.20;78.05
71436;SHT31;59251;51.326;12.370;2023-03-01T08:51:21;1.24;77.31
71436;SHT31;59251;51.326;12.370;2023-03-01T08:53:47;1.32;77.67
71436;SHT31;59251;51.326;12.370;2023-03-01T08:56:13;1.51;76.85
71436;SHT31;59251;51.326;12.370;2023-03-01T08:58:39;1.46;77.10
71436;SHT31;59251;51.326;12.370;2023-03-01T09:01:09;1.35;76.45
71436;SHT31;59251;51.326;12.370;2023-03-01T09:03:34;1.32;76.58
71436;SHT31;59251;51.326;12.370;2023-03-01T09:06:01;1.48;76.92
71436;SHT31;59251;51.326;12.370;2023-03-01T09:08:27;1.58;76.33
71436;SHT31;59251;51.326;12.370;2023-03-01T09:10:52;1.79;75.60
71436;SHT31;59251;51.326;12.370;2023-03-01T09:13:17;1.79;75.24
71436;SHT31;59251;51.326;12.370;2023-03-01T09:15:43;1.52;75.52
71436;SHT31;59251;51.326;12.370;2023-03-01T09:18:08;1.55;75.46
71436;SHT31;59251;51.326;12.370;2023-03-01T09:20:34;1.46;75.43
71436;SHT31;59251;51.326;12.370;2023-03-01T09:22:59;1.66;75.16
71436;SHT31;59251;51.326;12.370;2023-03-01T09:25:25;1.69;74.66
71436;SHT31;59251;51.326;12.370;2023-03-01T09:27:53;1.87;74.42
71436;SHT31;59251;51.326;12.370;2023-03-01T09:30:20;1.87;74.16
71436;SHT31;59251;51.326;12.370;2023-03-01T09:32:46;2.17;74.11
71436;SHT31;59251;51.326;12.370;2023-03-01T09:35:12;2.32;73.57
71436;SHT31;59251;51.326;12.370;2023-03-01T09:37:38;2.07;73.46
71436;SHT31;59251;51.326;12.370;2023-03-01T09:40:05;2.22;73.01
71436;SHT31;59251;51.326;12.370;2023-03-01T09:42:34;2.21;72.74
71436;SHT31;59251;51.326;12.370;2023-03-01T09:45:36;2.45;72.71
71436;SHT31;59251;51.326;12.370;2023-03-01T09:48:04;2.45;72.33
71436;SHT31;59251;51.326;12.370;2023-03-01T09:50:39;2.38;72.39
71436;SHT31;59251;51.326;12.370;2023-03-01T09:53:23;2.45;71.85
71436;SHT31;59251;51.326;12.370;2023-03-01T09:55:55;2.52;71.99
71436;SHT31;59251;51.326;12.370;2023-03-01T09:58:47;2.56;71.78
71436;SHT31;59251;51.326;12.370;2023-03-01T10:09:40;3.10;71.54
71436;SHT31;59251;51.326;12.370;2023-03-01T10:12:16;2.79;71.67
71436;SHT31;59251;51.326;12.370;2023-03-01T10:14:51;2.68;71.69
71436;SHT31;59251;51.326;12.370;2023-03-01T10:22:39;2.92;72.34
71436;SHT31;59251;51.326;12.370;2023-03-01T10:25:05;3.11;72.16
71436;SHT31;59251;51.326;12.370;2023-03-01T10:27:49;3.21;72.07
71436;SHT31;59251;51.326;12.370;2023-03-01T10:30:26;3.39;71.37
71436;SHT31;59251;51.326;12.370;2023-03-01T10:32:54;3.38;70.94
71436;SHT31;59251;51.326;12.370;2023-03-01T10:35:22;3.37;70.29
71436;SHT31;59251;51.326;12.370;2023-03-01T10:38:05;3.57;69.68
71436;SHT31;59251;51.326;12.370;2023-03-01T10:40:32;3.24;68.75
71436;SHT31;59251;51.326;12.370;2023-03-01T10:42:59;3.23;69.09
71436;SHT31;59251;51.326;12.370;2023-03-01T10:45:37;3.37;68.86
71436;SHT31;59251;51.326;12.370;2023-03-01T10:48:16;3.27;69.23
71436;SHT31;59251;51.326;12.370;2023-03-01T10:50:43;3.50;68.89
71436;SHT31;59251;51.326;12.370;2023-03-01T10:53:24;3.58;68.24
71436;SHT31;59251;51.326;12.370;2023-03-01T10:58:24;3.31;68.00
71436;SHT31;59251;51.326;12.370;2023-03-01T11:00:55;3.69;67.64
71436;SHT31;59251;51.326;12.370;2023-03-01T11:03:28;3.76;67.37
71436;SHT31;59251;51.326;12.370;2023-03-01T11:08:32;3.66;66.64
71436;SHT31;59251;51.326;12.370;2023-03-01T11:13:30;4.27;66.05
71436;SHT31;59251;51.326;12.370;2023-03-01T11:18:26;3.87;67.39
71436;SHT31;59251;51.326;12.370;2023-03-01T11:20:53;4.05;67.99
71436;SHT31;59251;51.326;12.370;2023-03-01T11:23:20;4.23;68.54
71436;SHT31;59251;51.326;12.370;2023-03-01T11:25:56;3.82;68.92
71436;SHT31;59251;51.326;12.370;2023-03-01T11:28:25;4.18;69.09
71436;SHT31;59251;51.326;12.370;2023-03-01T11:31:01;4.32;68.65
71436;SHT31;59251;51.326;12.370;2023-03-01T11:33:48;4.16;68.70
71436;SHT31;59251;51.326;12.370;2023-03-01T11:36:29;4.26;69.02
71436;SHT31;59251;51.326;12.370;2023-03-01T11:38:55;4.55;68.54
71436;SHT31;59251;51.326;12.370;2023-03-01T11:41:25;4.71;68.14
71436;SHT31;59251;51.326;12.370;2023-03-01T11:44:12;4.74;68.36
71436;SHT31;59251;51.326;12.370;2023-03-01T11:46:45;4.69;68.10
71436;SHT31;59251;51.326;12.370;2023-03-01T11:49:38;4.38;68.69
71436;SHT31;59251;51.326;12.370;2023-03-01T11:52:26;4.65;68.03
71436;SHT31;59251;51.326;12.370;2023-03-01T12:06:01;5.84;64.30
71436;SHT31;59251;51.326;12.370;2023-03-01T12:08:40;5.81;63.86
71436;SHT31;59251;51.326;12.370;2023-03-01T12:14:22;5.75;64.34
71436;SHT31;59251;51.326;12.370;2023-03-01T12:22:27;6.80;60.32
71436;SHT31;59251;51.326;12.370;2023-03-01T12:36:54;8.05;54.66
71436;SHT31;59251;51.326;12.370;2023-03-01T12:50:22;7.69;55.12
71436;SHT31;59251;51.326;12.370;2023-03-01T12:52:52;8.19;54.49
71436;SHT31;59251;51.326;12.370;2023-03-01T12:55:28;8.54;54.13
71436;SHT31;59251;51.326;12.370;2023-03-01T13:06:04;9.28;52.90
71436;SHT31;59251;51.326;12.370;2023-03-01T13:08:40;9.49;52.17
71436;SHT31;59251;51.326;12.370;2023-03-01T13:11:17;7.94;55.58
71436;SHT31;59251;51.326;12.370;2023-03-01T13:13:43;7.52;57.80
71436;SHT31;59251;51.326;12.370;2023-03-01T13:19:19;7.60;56.69
71436;SHT31;59251;51.326;12.370;2023-03-01T13:21:46;7.66;55.88
71436;SHT31;59251;51.326;12.370;2023-03-01T13:24:26;9.05;52.00
71436;SHT31;59251;51.326;12.370;2023-03-01T13:29:46;7.20;55.56
71436;SHT31;59251;51.326;12.370;2023-03-01T13:34:53;8.88;53.33
71436;SHT31;59251;51.326;12.370;2023-03-01T13:37:26;9.15;53.21
71436;SHT31;59251;51.326;12.370;2023-03-01T13:39:55;8.32;54.04
71436;SHT31;59251;51.326;12.370;2023-03-01T13:42:33;8.24;53.98
71436;SHT31;59251;51.326;12.370;2023-03-01T13:45:00;7.69;54.87
71436;SHT31;59251;51.326;12.370;2023-03-01T13:47:26;9.49;51.77
71436;SHT31;59251;51.326;12.370;2023-03-01T13:49:56;8.90;51.28
71436;SHT31;59251;51.326;12.370;2023-03-01T13:52:40;8.84;53.54
71436;SHT31;59251;51.326;12.370;2023-03-01T13:57:39;10.96;47.78
71436;SHT31;59251;51.326;12.370;2023-03-01T14:00:05;11.16;46.13
71436;SHT31;59251;51.326;12.370;2023-03-01T14:02:31;10.51;45.77
71436;SHT31;59251;51.326;12.370;2023-03-01T14:04:58;10.08;47.22
71436;SHT31;59251;51.326;12.370;2023-03-01T14:07:25;9.29;48.15
71436;SHT31;59251;51.326;12.370;2023-03-01T14:10:00;9.11;49.22
71436;SHT31;59251;51.326;12.370;2023-03-01T14:12:47;9.69;48.88
71436;SHT31;59251;51.326;12.370;2023-03-01T14:15:17;10.01;47.76
71436;SHT31;59251;51.326;12.370;2023-03-01T14:20:23;8.33;50.56
71436;SHT31;59251;51.326;12.370;2023-03-01T14:22:51;8.90;51.23
71436;SHT31;59251;51.326;12.370;2023-03-01T14:25:37;8.30;50.13
71436;SHT31;59251;51.326;12.370;2023-03-01T14:28:11;9.90;47.82
71436;SHT31;59251;51.326;12.370;2023-03-01T14:30:41;10.59;46.08
71436;SHT31;59251;51.326;12.370;2023-03-01T14:41:03;8.50;46.67
71436;SHT31;59251;51.326;12.370;2023-03-01T14:43:31;8.35;46.81
71436;SHT31;59251;51.326;12.370;2023-03-01T14:45:57;8.29;47.10
71436;SHT31;59251;51.326;12.370;2023-03-01T14:48:23;10.32;45.37
71436;SHT31;59251;51.326;12.370;2023-03-01T14:50:49;10.32;44.51
71436;SHT31;59251;51.326;12.370;2023-03-01T14:53:26;8.64;46.21
71436;SHT31;59251;51.326;12.370;2023-03-01T14:55:55;10.15;43.91
71436;SHT31;59251;51.326;12.370;2023-03-01T14:58:23;8.59;45.53
71436;SHT31;59251;51.326;12.370;2023-03-01T15:00:54;9.05;45.15
71436;SHT31;59251;51.326;12.370;2023-03-01T15:06:14;7.84;47.53
71436;SHT31;59251;51.326;12.370;2023-03-01T15:08:49;8.83;46.84
71436;SHT31;59251;51.326;12.370;2023-03-01T15:13:50;10.56;44.28
71436;SHT31;59251;51.326;12.370;2023-03-01T15:16:35;9.40;45.35
71436;SHT31;59251;51.326;12.370;2023-03-01T15:19:06;10.31;44.77
71436;SHT31;59251;51.326;12.370;2023-03-01T15:21:34;9.12;44.02
71436;SHT31;59251;51.326;12.370;2023-03-01T15:27:05;8.53;45.99
71436;SHT31;59251;51.326;12.370;2023-03-01T15:29:38;8.26;47.05
71436;SHT31;59251;51.326;12.370;2023-03-01T15:32:35;10.41;43.33
71436;SHT31;59251;51.326;12.370;2023-03-01T15:35:33;9.89;44.07
71436;SHT31;59251;51.326;12.370;2023-03-01T15:38:00;8.96;46.03
71436;SHT31;59251;51.326;12.370;2023-03-01T15:40:28;8.70;47.61
71436;SHT31;59251;51.326;12.370;2023-03-01T15:42:59;9.28;45.89
71436;SHT31;59251;51.326;12.370;2023-03-01T15:45:26;9.60;45.70
71436;SHT31;59251;51.326;12.370;2023-03-01T15:48:25;8.05;49.46
71436;SHT31;59251;51.326;12.370;2023-03-01T15:50:55;6.53;51.43
71436;SHT31;59251;51.326;12.370;2023-03-01T15:53:22;6.60;51.42
71436;SHT31;59251;51.326;12.370;2023-03-01T15:55:48;6.43;51.49
71436;SHT31;59251;51.326;12.370;2023-03-01T15:58:17;6.53;51.55
71436;SHT31;59251;51.326;12.370;2023-03-01T16:00:45;6.23;51.86
71436;SHT31;59251;51.326;12.370;2023-03-01T16:03:11;6.20;52.43
71436;SHT31;59251;51.326;12.370;2023-03-01T16:05:37;6.15;52.56
71436;SHT31;59251;51.326;12.370;2023-03-01T16:08:04;5.89;52.90
71436;SHT31;59251;51.326;12.370;2023-03-01T16:10:31;6.13;53.24
71436;SHT31;59251;51.326;12.370;2023-03-01T16:12:57;6.03;53.39
71436;SHT31;59251;51.326;12.370;2023-03-01T16:15:26;5.85;53.89
71436;SHT31;59251;51.326;12.370;2023-03-01T16:17:52;5.84;53.94
71436;SHT31;59251;51.326;12.370;2023-03-01T16:20:18;5.74;53.91
71436;SHT31;59251;51.326;12.370;2023-03-01T16:22:44;5.71;54.07
71436;SHT31;59251;51.326;12.370;2023-03-01T16:25:16;5.62;54.20
71436;SHT31;59251;51.326;12.370;2023-03-01T16:27:43;5.57;54.48
71436;SHT31;59251;51.326;12.370;2023-03-01T16:30:10;5.52;55.07
71436;SHT31;59251;51.326;12.370;2023-03-01T16:32:39;5.48;54.99
71436;SHT31;59251;51.326;12.370;2023-03-01T16:35:06;5.41;55.15
71436;SHT31;59251;51.326;12.370;2023-03-01T16:37:33;5.39;55.34
71436;SHT31;59251;51.326;12.370;2023-03-01T16:39:59;5.29;55.60
71436;SHT31;59251;51.326;12.370;2023-03-01T16:42:25;5.29;55.87
71436;SHT31;59251;51.326;12.370;2023-03-01T16:44:59;5.27;55.89
71436;SHT31;59251;51.326;12.370;2023-03-01T16:47:25;5.19;56.11
71436;SHT31;59251;51.326;12.370;2023-03-01T16:49:52;5.12;56.35
71436;SHT31;59251;51.326;12.370;2023-03-01T16:52:17;5.09;56.75
71436;SHT31;59251;51.326;12.370;2023-03-01T16:54:43;5.09;56.67
71436;SHT31;59251;51.326;12.370;2023-03-01T16:57:08;5.03;56.94
71436;SHT31;59251;51.326;12.370;2023-03-01T16:59:34;4.99;57.27
71436;SHT31;59251;51.326;12.370;2023-03-01T17:01:59;4.97;57.49
71436;SHT31;59251;51.326;12.370;2023-03-01T17:04:24;4.89;57.63
71436;SHT31;59251;51.326;12.370;2023-03-01T17:06:50;4.86;57.85
71436;SHT31;59251;51.326;12.370;2023-03-01T17:09:15;4.85;57.92
71436;SHT31;59251;51.326;12.370;2023-03-01T17:11:42;4.71;58.33
71436;SHT31;59251;51.326;12.370;2023-03-01T17:14:08;4.72;58.44
71436;SHT31;59251;51.326;12.370;2023-03-01T17:16:33;4.62;58.87
71436;SHT31;59251;51.326;12.370;2023-03-01T17:19:00;4.53;59.29
71436;SHT31;59251;51.326;12.370;2023-03-01T17:21:25;4.50;59.63
71436;SHT31;59251;51.326;12.370;2023-03-01T17:23:55;4.50;59.52